sensor_id;sensor_type;location;lat;lon;timestamp;temperature;humidity
60848;DHT22;46681;47.696;9.140;2023-02-08T00:01:13;7.50;41.80
60848;DHT22;46681;47.696;9.140;2023-02-08T00:03:40;7.50;41.80
60848;DHT22;46681;47.696;9.140;2023-02-08T00:06:07;7.50;41.80
60848;DHT22;46681;47.696;9.140;2023-02-08T00:08:35;7.50;41.80
60848;DHT22;46681;47.696;9.140;2023-02-08T00:11:01;7.50;41.80
60848;DHT22;46681;47.696;9.140;2023-02-08T00:13:28;7.50;41.70
60848;DHT22;46681;47.696;9.140;2023-02-08T00:15:55;7.50;41.70
60848;DHT22;46681;47.696;9.140;2023-02-08T00:18:22;7.50;41.70
60848;DHT22;46681;47.696;9.140;2023-02-08T00:20:49;7.50;41.60
60848;DHT22;46681;47.696;9.140;2023-02-08T00:23:19;7.50;41.60
60848;DHT22;46681;47.696;9.140;2023-02-08T00:25:47;7.50;41.60
60848;DHT22;46681;47.696;9.140;2023-02-08T00:28:16;7.40;41.60
60848;DHT22;46681;47.696;9.140;2023-02-08T00:30:43;7.40;41.50
60848;DHT22;46681;47.696;9.140;2023-02-08T00:33:11;7.40;41.50
60848;DHT22;46681;47.696;9.140;2023-02-08T00:35:36;7.50;41.50
60848;DHT22;46681;47.696;9.140;2023-02-08T00:38:04;7.40;41.50
60848;DHT22;46681;47.696;9.140;2023-02-08T00:40:31;7.40;41.40
60848;DHT22;46681;47.696;9.140;2023-02-08T00:43:02;7.40;41.40
60848;DHT22;46681;47.696;9.140;2023-02-08T00:45:28;7.30;41.40
60848;DHT22;46681;47.696;9.140;2023-02-08T00:47:55;7.40;41.40
60848;DHT22;46681;47.696;9.140;2023-02-08T00:50:22;7.40;41.40
60848;DHT22;46681;47.696;9.140;2023-02-08T00:52:49;7.40;41.30
60848;DHT22;46681;47.696;9.140;2023-02-08T00:55:16;7.40;41.30
60848;DHT22;46681;47.696;9.140;2023-02-08T00:57:43;7.40;41.30
60848;DHT22;46681;47.696;9.140;2023-02-08T01:00:12;7.30;41.20
60848;DHT22;46681;47.696;9.140;2023-02-08T01:02:38;7.40;41.20
60848;DHT22;46681;47.696;9.140;2023-02-08T01:05:05;7.40;41.20
60848;DHT22;46681;47.696;9.140;2023-02-08T01:07:31;7.30;41.20
60848;DHT22;46681;47.696;9.140;2023-02-08T01:09:57;7.30;41.10
60848;DHT22;46681;47.696;9.140;2023-02-08T01:12:22;7.30;41.20
60848;DHT22;46681;47.696;9.140;2023-02-08T01:14:49;7.30;41.20
60848;DHT22;46681;47.696;9.140;2023-02-08T01:17:16;7.30;41.10
60848;DHT22;46681;47.696;9.140;2023-02-08T01:19:42;7.30;41.10
60848;DHT22;46681;47.696;9.140;2023-02-08T01:22:09;7.30;41.10
60848;DHT22;46681;47.696;9.140;2023-02-08T01:24:36;7.30;41.00
60848;DHT22;46681;47.696;9.140;2023-02-08T01:27:04;7.30;41.00
60848;DHT22;46681;47.696;9.140;2023-02-08T01:29:31;7.30;40.90
60848;DHT22;46681;47.696;9.140;2023-02-08T01:31:58;7.30;40.90
60848;DHT22;46681;47.696;9.140;2023-02-08T01:34:25;7.30;40.90
60848;DHT22;46681;47.696;9.140;2023-02-08T01:36:54;7.30;40.90
60848;DHT22;46681;47.696;9.140;2023-02-08T01:39:21;7.30;40.90
60848;DHT22;46681;47.696;9.140;2023-02-08T01:41:48;7.20;40.80
60848;DHT22;46681;47.696;9.140;2023-02-08T01:46:47;7.20;40.90
60848;DHT22;46681;47.696;9.140;2023-02-08T01:49:33;7.20;41.00
60848;DHT22;46681;47.696;9.140;2023-02-08T01:52:29;7.20;41.00
60848;DHT22;46681;47.696;9.140;2023-02-08T01:55:01;7.20;40.90
60848;DHT22;46681;47.696;9.140;2023-02-08T01:57:30;7.20;41.00
60848;DHT22;46681;47.696;9.140;2023-02-08T02:00:07;7.20;40.90
60848;DHT22;46681;47.696;9.140;2023-02-08T02:02:37;7.20;40.90
60848;DHT22;46681;47.696;9.140;2023-02-08T02:05:05;7.20;40.90
60848;DHT22;46681;47.696;9.140;2023-02-08T02:07:32;7.20;40.90
60848;DHT22;46681;47.696;9.140;2023-02-08T02:10:34;7.10;40.90
60848;DHT22;46681;47.696;9.140;2023-02-08T02:13:06;7.10;40.80
60848;DHT22;46681;47.696;9.140;2023-02-08T02:15:33;7.10;40.80
60848;DHT22;46681;47.696;9.140;2023-02-08T02:18:01;7.20;40.80
60848;DHT22;46681;47.696;9.140;2023-02-08T02:26:52;7.10;40.70
60848;DHT22;46681;47.696;9.140;2023-02-08T02:38:20;7.10;40.70
60848;DHT22;46681;47.696;9.140;2023-02-08T02:41:11;7.10;40.70
60848;DHT22;46681;47.696;9.140;2023-02-08T02:43:54;7.10;40.70
60848;DHT22;46681;47.696;9.140;2023-02-08T02:46:47;7.10;40.80
60848;DHT22;46681;47.696;9.140;2023-02-08T02:49:26;7.10;40.80
60848;DHT22;46681;47.696;9.140;2023-02-08T02:52:33;7.10;40.70
60848;DHT22;46681;47.696;9.140;2023-02-08T02:55:08;7.10;40.70
60848;DHT22;46681;47.696;9.140;2023-02-08T02:57:39;7.10;40.70
60848;DHT22;46681;47.696;9.140;2023-02-08T03:00:08;7.10;40.60
60848;DHT22;46681;47.696;9.140;2023-02-08T03:02:36;7.00;40.60
60848;DHT22;46681;47.696;9.140;2023-02-08T03:05:04;7.10;40.60
60848;DHT22;46681;47.696;9.140;2023-02-08T03:07:48;7.10;40.50
60848;DHT22;46681;47.696;9.140;2023-02-08T03:16:18;7.10;40.50
60848;DHT22;46681;47.696;9.140;2023-02-08T03:21:57;7.10;40.40
60848;DHT22;46681;47.696;9.140;2023-02-08T03:24:54;7.10;40.40
60848;DHT22;46681;47.696;9.140;2023-02-08T03:33:15;7.10;40.30
60848;DHT22;46681;47.696;9.140;2023-02-08T03:35:54;7.00;40.30
60848;DHT22;46681;47.696;9.140;2023-02-08T03:38:28;7.10;40.40
60848;DHT22;46681;47.696;9.140;2023-02-08T03:41:01;7.00;40.30
60848;DHT22;46681;47.696;9.140;2023-02-08T03:43:49;7.00;40.30
60848;DHT22;46681;47.696;9.140;2023-02-08T03:46:29;7.00;40.30
60848;DHT22;46681;47.696;9.140;2023-02-08T03:49:16;7.00;40.40
60848;DHT22;46681;47.696;9.140;2023-02-08T03:51:45;7.00;40.40
60848;DHT22;46681;47.696;9.140;2023-02-08T03:54:23;7.00;40.40
60848;DHT22;46681;47.696;9.140;2023-02-08T03:56:58;6.90;40.30
60848;DHT22;46681;47.696;9.140;2023-02-08T03:59:35;6.90;40.40
60848;DHT22;46681;47.696;9.140;2023-02-08T04:02:06;6.80;40.40
60848;DHT22;46681;47.696;9.140;2023-02-08T04:04:41;6.90;40.40
60848;DHT22;46681;47.696;9.140;2023-02-08T04:07:16;6.90;40.40
60848;DHT22;46681;47.696;9.140;2023-02-08T04:09:42;6.80;40.40
60848;DHT22;46681;47.696;9.140;2023-02-08T04:12:09;6.80;40.40
60848;DHT22;46681;47.696;9.140;2023-02-08T04:14:34;6.90;40.40
60848;DHT22;46681;47.696;9.140;2023-02-08T04:17:03;6.90;40.30
60848;DHT22;46681;47.696;9.140;2023-02-08T04:19:30;6.80;40.20
60848;DHT22;46681;47.696;9.140;2023-02-08T04:21:56;6.90;40.30
60848;DHT22;46681;47.696;9.140;2023-02-08T04:24:25;6.90;40.20
60848;DHT22;46681;47.696;9.140;2023-02-08T04:26:52;6.90;40.10
60848;DHT22;46681;47.696;9.140;2023-02-08T04:29:17;6.90;40.10
60848;DHT22;46681;47.696;9.140;2023-02-08T04:31:51;6.90;40.10
60848;DHT22;46681;47.696;9.140;2023-02-08T04:34:18;6.90;40.10
60848;DHT22;46681;47.696;9.140;2023-02-08T04:36:44;6.90;40.00
60848;DHT22;46681;47.696;9.140;2023-02-08T04:39:10;6.90;40.00
60848;DHT22;46681;47.696;9.140;2023-02-08T04:41:36;6.80;40.00
60848;DHT22;46681;47.696;9.140;2023-02-08T04:44:03;6.90;40.10
60848;DHT22;46681;47.696;9.140;2023-02-08T04:46:30;6.90;40.00
60848;DHT22;46681;47.696;9.140;2023-02-08T04:49:00;6.90;40.00
60848;DHT22;46681;47.696;9.140;2023-02-08T04:51:31;6.90;40.00
60848;DHT22;46681;47.696;9.140;2023-02-08T04:53:58;6.90;39.90
60848;DHT22;46681;47.696;9.140;2023-02-08T04:56:29;6.80;39.90
60848;DHT22;46681;47.696;9.140;2023-02-08T04:58:56;6.80;40.50
60848;DHT22;46681;47.696;9.140;2023-02-08T05:01:28;6.90;40.30
60848;DHT22;46681;47.696;9.140;2023-02-08T05:03:59;6.90;40.20
60848;DHT22;46681;47.696;9.140;2023-02-08T05:06:27;6.90;40.00
60848;DHT22;46681;47.696;9.140;2023-02-08T05:09:09;6.90;39.90
60848;DHT22;46681;47.696;9.140;2023-02-08T05:11:40;6.80;39.90
60848;DHT22;46681;47.696;9.140;2023-02-08T05:14:20;6.80;39.90
60848;DHT22;46681;47.696;9.140;2023-02-08T05:16:53;6.80;39.90
60848;DHT22;46681;47.696;9.140;2023-02-08T05:19:34;6.80;39.90
60848;DHT22;46681;47.696;9.140;2023-02-08T05:22:01;6.80;39.90
60848;DHT22;46681;47.696;9.140;2023-02-08T05:24:30;6.90;40.80
60848;DHT22;46681;47.696;9.140;2023-02-08T05:27:06;6.90;40.50
60848;DHT22;46681;47.696;9.140;2023-02-08T05:29:49;7.00;40.10
60848;DHT22;46681;47.696;9.140;2023-02-08T05:32:37;7.10;39.90
60848;DHT22;46681;47.696;9.140;2023-02-08T05:35:14;7.20;40.20
60848;DHT22;46681;47.696;9.140;2023-02-08T05:37:48;7.30;39.70
60848;DHT22;46681;47.696;9.140;2023-02-08T05:40:26;7.50;39.70
60848;DHT22;46681;47.696;9.140;2023-02-08T05:42:56;7.60;39.80
60848;DHT22;46681;47.696;9.140;2023-02-08T05:45:45;7.70;39.30
60848;DHT22;46681;47.696;9.140;2023-02-08T05:48:19;7.80;39.20
60848;DHT22;46681;47.696;9.140;2023-02-08T05:50:57;7.90;38.90
60848;DHT22;46681;47.696;9.140;2023-02-08T05:53:41;8.00;38.70
60848;DHT22;46681;47.696;9.140;2023-02-08T05:56:33;8.00;38.60
60848;DHT22;46681;47.696;9.140;2023-02-08T05:59:01;8.00;38.50
60848;DHT22;46681;47.696;9.140;2023-02-08T06:01:51;8.00;38.40
60848;DHT22;46681;47.696;9.140;2023-02-08T06:04:17;8.00;38.40
60848;DHT22;46681;47.696;9.140;2023-02-08T06:10:05;8.00;38.30
60848;DHT22;46681;47.696;9.140;2023-02-08T06:15:57;8.10;38.20
60848;DHT22;46681;47.696;9.140;2023-02-08T06:40:00;8.10;37.70
60848;DHT22;46681;47.696;9.140;2023-02-08T06:45:38;8.20;37.80
60848;DHT22;46681;47.696;9.140;2023-02-08T06:48:16;8.20;37.80
60848;DHT22;46681;47.696;9.140;2023-02-08T06:50:58;8.20;37.80
60848;DHT22;46681;47.696;9.140;2023-02-08T06:53:31;8.20;37.70
60848;DHT22;46681;47.696;9.140;2023-02-08T06:55:58;8.10;37.70
60848;DHT22;46681;47.696;9.140;2023-02-08T06:58:34;8.20;37.80
60848;DHT22;46681;47.696;9.140;2023-02-08T07:01:31;8.20;37.70
60848;DHT22;46681;47.696;9.140;2023-02-08T07:04:18;8.10;37.70
60848;DHT22;46681;47.696;9.140;2023-02-08T07:07:00;8.20;37.70
60848;DHT22;46681;47.696;9.140;2023-02-08T07:09:27;8.20;37.70
60848;DHT22;46681;47.696;9.140;2023-02-08T07:12:02;8.20;37.60
60848;DHT22;46681;47.696;9.140;2023-02-08T07:14:46;8.20;37.70
60848;DHT22;46681;47.696;9.140;2023-02-08T07:17:21;8.20;37.60
60848;DHT22;46681;47.696;9.140;2023-02-08T07:20:27;8.20;37.60
60848;DHT22;46681;47.696;9.140;2023-02-08T07:22:59;8.30;38.80
60848;DHT22;46681;47.696;9.140;2023-02-08T07:25:25;8.10;38.10
60848;DHT22;46681;47.696;9.140;2023-02-08T07:27:53;8.10;39.50
60848;DHT22;46681;47.696;9.140;2023-02-08T07:30:56;8.10;39.20
60848;DHT22;46681;47.696;9.140;2023-02-08T07:33:30;8.10;38.70
60848;DHT22;46681;47.696;9.140;2023-02-08T07:36:24;8.10;38.50
60848;DHT22;46681;47.696;9.140;2023-02-08T07:38:56;8.10;38.30
60848;DHT22;46681;47.696;9.140;2023-02-08T07:41:25;8.10;38.20
60848;DHT22;46681;47.696;9.140;2023-02-08T07:43:58;8.00;38.20
60848;DHT22;46681;47.696;9.140;2023-02-08T07:46:36;8.10;38.10
60848;DHT22;46681;47.696;9.140;2023-02-08T07:49:27;8.10;38.20
60848;DHT22;46681;47.696;9.140;2023-02-08T07:52:02;8.20;38.10
60848;DHT22;46681;47.696;9.140;2023-02-08T07:55:00;8.10;37.80
60848;DHT22;46681;47.696;9.140;2023-02-08T07:57:31;8.20;37.60
60848;DHT22;46681;47.696;9.140;2023-02-08T08:00:13;8.20;37.60
60848;DHT22;46681;47.696;9.140;2023-02-08T08:02:59;8.20;37.60
60848;DHT22;46681;47.696;9.140;2023-02-08T08:05:27;8.30;37.60
60848;DHT22;46681;47.696;9.140;2023-02-08T08:07:57;8.30;37.60
60848;DHT22;46681;47.696;9.140;2023-02-08T08:10:23;8.40;38.00
60848;DHT22;46681;47.696;9.140;2023-02-08T08:13:02;8.40;38.00
60848;DHT22;46681;47.696;9.140;2023-02-08T08:15:51;8.40;37.60
60848;DHT22;46681;47.696;9.140;2023-02-08T08:18:48;8.50;37.60
60848;DHT22;46681;47.696;9.140;2023-02-08T08:21:25;8.50;37.50
60848;DHT22;46681;47.696;9.140;2023-02-08T08:24:14;8.60;37.50
60848;DHT22;46681;47.696;9.140;2023-02-08T08:27:24;8.60;37.50
60848;DHT22;46681;47.696;9.140;2023-02-08T08:30:23;8.80;37.50
60848;DHT22;46681;47.696;9.140;2023-02-08T08:33:14;8.90;37.50
60848;DHT22;46681;47.696;9.140;2023-02-08T08:35:48;9.00;37.40
60848;DHT22;46681;47.696;9.140;2023-02-08T08:38:22;9.20;37.30
60848;DHT22;46681;47.696;9.140;2023-02-08T08:41:10;9.30;37.10
60848;DHT22;46681;47.696;9.140;2023-02-08T08:43:47;9.50;37.00
60848;DHT22;46681;47.696;9.140;2023-02-08T08:49:32;9.80;36.90
60848;DHT22;46681;47.696;9.140;2023-02-08T08:52:11;9.90;36.80
60848;DHT22;46681;47.696;9.140;2023-02-08T08:54:37;10.00;36.80
60848;DHT22;46681;47.696;9.140;2023-02-08T08:57:08;10.20;36.80
60848;DHT22;46681;47.696;9.140;2023-02-08T08:59:51;10.30;37.10
60848;DHT22;46681;47.696;9.140;2023-02-08T09:02:55;10.40;36.70
60848;DHT22;46681;47.696;9.140;2023-02-08T09:05:52;10.50;36.60
60848;DHT22;46681;47.696;9.140;2023-02-08T09:08:29;10.70;36.60
60848;DHT22;46681;47.696;9.140;2023-02-08T09:11:11;10.80;36.60
60848;DHT22;46681;47.696;9.140;2023-02-08T09:14:11;10.90;36.60
60848;DHT22;46681;47.696;9.140;2023-02-08T09:16:44;11.00;36.60
60848;DHT22;46681;47.696;9.140;2023-02-08T09:19:14;11.10;36.50
60848;DHT22;46681;47.696;9.140;2023-02-08T09:21:49;11.10;36.40
60848;DHT22;46681;47.696;9.140;2023-02-08T09:24:20;11.30;36.50
60848;DHT22;46681;47.696;9.140;2023-02-08T09:26:53;11.30;36.40
60848;DHT22;46681;47.696;9.140;2023-02-08T09:29:22;11.40;36.40
60848;DHT22;46681;47.696;9.140;2023-02-08T09:31:48;11.50;36.40
60848;DHT22;46681;47.696;9.140;2023-02-08T09:34:19;11.50;36.30
60848;DHT22;46681;47.696;9.140;2023-02-08T09:37:09;11.60;36.30
60848;DHT22;46681;47.696;9.140;2023-02-08T09:39:40;11.70;36.30
60848;DHT22;46681;47.696;9.140;2023-02-08T09:48:32;12.00;36.30
60848;DHT22;46681;47.696;9.140;2023-02-08T09:54:56;12.20;35.00
60848;DHT22;46681;47.696;9.140;2023-02-08T10:00:56;12.60;34.00
60848;DHT22;46681;47.696;9.140;2023-02-08T10:04:18;12.80;34.10
60848;DHT22;46681;47.696;9.140;2023-02-08T10:06:53;13.00;33.50
60848;DHT22;46681;47.696;9.140;2023-02-08T10:09:25;13.00;34.10
60848;DHT22;46681;47.696;9.140;2023-02-08T10:31:02;14.00;34.30
60848;DHT22;46681;47.696;9.140;2023-02-08T10:33:18;14.10;34.40
60848;DHT22;46681;47.696;9.140;2023-02-08T10:35:58;14.20;34.20
60848;DHT22;46681;47.696;9.140;2023-02-08T10:38:43;14.30;34.20
60848;DHT22;46681;47.696;9.140;2023-02-08T10:41:31;14.40;34.30
60848;DHT22;46681;47.696;9.140;2023-02-08T10:44:29;14.50;34.50
60848;DHT22;46681;47.696;9.140;2023-02-08T10:59:50;15.20;34.40
60848;DHT22;46681;47.696;9.140;2023-02-08T11:06:15;15.50;34.40
60848;DHT22;46681;47.696;9.140;2023-02-08T11:09:21;15.60;34.50
60848;DHT22;46681;47.696;9.140;2023-02-08T11:15:48;15.80;33.90
60848;DHT22;46681;47.696;9.140;2023-02-08T11:21:47;16.00;34.20
60848;DHT22;46681;47.696;9.140;2023-02-08T11:34:09;16.40;33.80
60848;DHT22;46681;47.696;9.140;2023-02-08T11:40:05;16.50;33.70
60848;DHT22;46681;47.696;9.140;2023-02-08T11:43:01;16.70;33.50
60848;DHT22;46681;47.696;9.140;2023-02-08T11:45:42;16.80;33.60
60848;DHT22;46681;47.696;9.140;2023-02-08T11:51:33;16.90;33.90
60848;DHT22;46681;47.696;9.140;2023-02-08T11:54:37;17.00;33.40
60848;DHT22;46681;47.696;9.140;2023-02-08T12:00:36;17.30;33.90
60848;DHT22;46681;47.696;9.140;2023-02-08T12:21:41;17.70;33.40
60848;DHT22;46681;47.696;9.140;2023-02-08T12:49:31;18.40;32.80
60848;DHT22;46681;47.696;9.140;2023-02-08T12:57:56;18.50;32.80
60848;DHT22;46681;47.696;9.140;2023-02-08T13:00:39;18.60;32.70
60848;DHT22;46681;47.696;9.140;2023-02-08T13:06:42;18.70;32.70
60848;DHT22;46681;47.696;9.140;2023-02-08T13:09:38;18.80;32.70
60848;DHT22;46681;47.696;9.140;2023-02-08T13:15:57;18.80;32.60
60848;DHT22;46681;47.696;9.140;2023-02-08T13:21:39;18.90;32.50
60848;DHT22;46681;47.696;9.140;2023-02-08T13:24:42;18.90;32.60
60848;DHT22;46681;47.696;9.140;2023-02-08T13:27:32;19.00;32.40
60848;DHT22;46681;47.696;9.140;2023-02-08T13:33:58;18.70;31.20
60848;DHT22;46681;47.696;9.140;2023-02-08T13:36:55;18.60;31.80
60848;DHT22;46681;47.696;9.140;2023-02-08T13:39:50;18.80;31.80
60848;DHT22;46681;47.696;9.140;2023-02-08T13:45:59;18.90;31.70
60848;DHT22;46681;47.696;9.140;2023-02-08T13:52:44;19.00;31.80
60848;DHT22;46681;47.696;9.140;2023-02-08T14:01:30;19.10;31.50
60848;DHT22;46681;47.696;9.140;2023-02-08T14:04:42;19.10;31.70
60848;DHT22;46681;47.696;9.140;2023-02-08T14:13:43;18.80;31.60
60848;DHT22;46681;47.696;9.140;2023-02-08T14:23:22;18.60;31.50
60848;DHT22;46681;47.696;9.140;2023-02-08T14:26:20;18.70;32.00
60848;DHT22;46681;47.696;9.140;2023-02-08T14:29:23;18.70;31.80
60848;DHT22;46681;47.696;9.140;2023-02-08T14:32:29;18.70;31.70
60848;DHT22;46681;47.696;9.140;2023-02-08T14:44:52;18.60;31.70
60848;DHT22;46681;47.696;9.140;2023-02-08T14:53:38;18.40;31.80
60848;DHT22;46681;47.696;9.140;2023-02-08T15:02:43;18.10;31.50
60848;DHT22;46681;47.696;9.140;2023-02-08T15:05:39;17.70;30.90
60848;DHT22;46681;47.696;9.140;2023-02-08T15:08:19;17.50;30.80
60848;DHT22;46681;47.696;9.140;2023-02-08T15:11:25;17.20;30.90
60848;DHT22;46681;47.696;9.140;2023-02-08T15:14:46;16.80;31.20
60848;DHT22;46681;47.696;9.140;2023-02-08T15:17:45;16.40;32.10
60848;DHT22;46681;47.696;9.140;2023-02-08T15:20:41;16.00;32.50
60848;DHT22;46681;47.696;9.140;2023-02-08T15:27:00;15.40;33.70
60848;DHT22;46681;47.696;9.140;2023-02-08T15:36:35;14.80;34.40
60848;DHT22;46681;47.696;9.140;2023-02-08T15:39:49;14.60;34.70
60848;DHT22;46681;47.696;9.140;2023-02-08T15:42:28;14.40;35.00
60848;DHT22;46681;47.696;9.140;2023-02-08T15:45:18;14.30;35.10
60848;DHT22;46681;47.696;9.140;2023-02-08T15:47:55;14.10;35.40
60848;DHT22;46681;47.696;9.140;2023-02-08T15:50:55;13.90;35.50
60848;DHT22;46681;47.696;9.140;2023-02-08T15:53:40;13.70;35.70
60848;DHT22;46681;47.696;9.140;2023-02-08T15:56:33;13.60;35.80
60848;DHT22;46681;47.696;9.140;2023-02-08T16:02:43;13.30;36.20
60848;DHT22;46681;47.696;9.140;2023-02-08T16:05:47;13.10;36.30
60848;DHT22;46681;47.696;9.140;2023-02-08T16:09:15;12.90;36.50
60848;DHT22;46681;47.696;9.140;2023-02-08T16:14:49;12.70;36.70
60848;DHT22;46681;47.696;9.140;2023-02-08T16:17:44;12.50;36.80
60848;DHT22;46681;47.696;9.140;2023-02-08T16:20:55;12.40;36.90
60848;DHT22;46681;47.696;9.140;2023-02-08T16:29:47;12.00;37.20
60848;DHT22;46681;47.696;9.140;2023-02-08T16:32:40;11.90;37.30
60848;DHT22;46681;47.696;9.140;2023-02-08T16:35:39;11.80;37.40
60848;DHT22;46681;47.696;9.140;2023-02-08T16:38:22;11.70;37.50
60848;DHT22;46681;47.696;9.140;2023-02-08T16:41:22;11.50;37.60
60848;DHT22;46681;47.696;9.140;2023-02-08T16:44:39;11.40;37.60
60848;DHT22;46681;47.696;9.140;2023-02-08T16:48:02;11.30;37.70
60848;DHT22;46681;47.696;9.140;2023-02-08T16:51:12;11.20;37.80
60848;DHT22;46681;47.696;9.140;2023-02-08T16:54:20;11.10;37.90
60848;DHT22;46681;47.696;9.140;2023-02-08T16:57:06;11.00;37.90
60848;DHT22;46681;47.696;9.140;2023-02-08T17:00:11;10.90;38.00
60848;DHT22;46681;47.696;9.140;2023-02-08T17:03:21;10.80;38.00
60848;DHT22;46681;47.696;9.140;2023-02-08T17:06:31;10.70;38.10
60848;DHT22;46681;47.696;9.140;2023-02-08T17:09:16;10.60;38.20
60848;DHT22;46681;47.696;9.140;2023-02-08T17:11:55;10.50;38.30
60848;DHT22;46681;47.696;9.140;2023-02-08T17:14:50;10.40;38.30
60848;DHT22;46681;47.696;9.140;2023-02-08T17:17:36;10.30;38.30
60848;DHT22;46681;47.696;9.140;2023-02-08T17:20:41;10.20;38.40
60848;DHT22;46681;47.696;9.140;2023-02-08T17:23:17;10.20;38.50
60848;DHT22;46681;47.696;9.140;2023-02-08T17:26:03;10.10;38.80
60848;DHT22;46681;47.696;9.140;2023-02-08T17:29:02;10.00;38.60
60848;DHT22;46681;47.696;9.140;2023-02-08T17:32:00;9.90;38.70
60848;DHT22;46681;47.696;9.140;2023-02-08T17:34:30;9.80;38.70
60848;DHT22;46681;47.696;9.140;2023-02-08T17:37:20;9.70;38.70
60848;DHT22;46681;47.696;9.140;2023-02-08T17:40:22;9.70;39.30
60848;DHT22;46681;47.696;9.140;2023-02-08T17:43:15;9.70;39.10
60848;DHT22;46681;47.696;9.140;2023-02-08T17:45:59;9.60;39.10
60848;DHT22;46681;47.696;9.140;2023-02-08T17:48:44;9.50;39.10
60848;DHT22;46681;47.696;9.140;2023-02-08T17:51:39;9.40;39.10
60848;DHT22;46681;47.696;9.140;2023-02-08T17:54:10;9.40;39.10
60848;DHT22;46681;47.696;9.140;2023-02-08T17:56:40;9.40;39.10
60848;DHT22;46681;47.696;9.140;2023-02-08T17:59:12;9.30;39.10
60848;DHT22;46681;47.696;9.140;2023-02-08T18:01:52;9.30;39.10
60848;DHT22;46681;47.696;9.140;2023-02-08T18:04:19;9.30;39.10
60848;DHT22;46681;47.696;9.140;2023-02-08T18:10:25;9.20;39.10
60848;DHT22;46681;47.696;9.140;2023-02-08T18:12:56;9.10;39.30
60848;DHT22;46681;47.696;9.140;2023-02-08T18:18:54;9.10;39.30
60848;DHT22;46681;47.696;9.140;2023-02-08T18:21:29;9.10;39.30
60848;DHT22;46681;47.696;9.140;2023-02-08T18:24:18;9.00;39.20
60848;DHT22;46681;47.696;9.140;2023-02-08T18:27:02;9.00;39.20
60848;DHT22;46681;47.696;9.140;2023-02-08T18:29:51;8.90;39.20
60848;DHT22;46681;47.696;9.140;2023-02-08T18:32:17;8.90;39.20
60848;DHT22;46681;47.696;9.140;2023-02-08T18:34:50;8.90;39.30
60848;DHT22;46681;47.696;9.140;2023-02-08T18:37:18;8.90;39.30
60848;DHT22;46681;47.696;9.140;2023-02-08T18:39:47;8.80;39.30
60848;DHT22;46681;47.696;9.140;2023-02-08T18:42:22;8.80;39.30
60848;DHT22;46681;47.696;9.140;2023-02-08T18:45:14;8.80;39.30
60848;DHT22;46681;47.696;9.140;2023-02-08T18:47:45;8.80;39.30
60848;DHT22;46681;47.696;9.140;2023-02-08T18:50:14;8.70;39.20
60848;DHT22;46681;47.696;9.140;2023-02-08T18:52:48;8.70;39.30
60848;DHT22;46681;47.696;9.140;2023-02-08T18:55:21;8.70;39.30
60848;DHT22;46681;47.696;9.140;2023-02-08T18:57:54;8.60;39.20
60848;DHT22;46681;47.696;9.140;2023-02-08T19:00:36;8.60;39.30
60848;DHT22;46681;47.696;9.140;2023-02-08T19:03:02;8.60;39.30
60848;DHT22;46681;47.696;9.140;2023-02-08T19:05:46;8.60;39.80
60848;DHT22;46681;47.696;9.140;2023-02-08T19:08:29;8.60;39.50
60848;DHT22;46681;47.696;9.140;2023-02-08T19:10:56;8.50;39.40
60848;DHT22;46681;47.696;9.140;2023-02-08T19:13:27;8.50;39.40
60848;DHT22;46681;47.696;9.140;2023-02-08T19:15:56;8.50;39.40
60848;DHT22;46681;47.696;9.140;2023-02-08T19:18:35;8.50;39.40
60848;DHT22;46681;47.696;9.140;2023-02-08T19:21:11;8.50;39.40
60848;DHT22;46681;47.696;9.140;2023-02-08T19:26:48;8.40;39.40
60848;DHT22;46681;47.696;9.140;2023-02-08T19:32:38;8.40;39.40
60848;DHT22;46681;47.696;9.140;2023-02-08T19:35:05;8.30;39.30
60848;DHT22;46681;47.696;9.140;2023-02-08T19:37:43;8.30;39.30
60848;DHT22;46681;47.696;9.140;2023-02-08T19:40:20;8.30;39.30
60848;DHT22;46681;47.696;9.140;2023-02-08T19:42:56;8.30;39.30
60848;DHT22;46681;47.696;9.140;2023-02-08T19:45:36;8.40;39.30
60848;DHT22;46681;47.696;9.140;2023-02-08T19:48:39;8.30;39.20
60848;DHT22;46681;47.696;9.140;2023-02-08T19:51:10;8.30;39.30
60848;DHT22;46681;47.696;9.140;2023-02-08T19:53:39;8.30;39.60
60848;DHT22;46681;47.696;9.140;2023-02-08T19:56:18;8.30;39.20
60848;DHT22;46681;47.696;9.140;2023-02-08T20:01:47;8.30;39.20
60848;DHT22;46681;47.696;9.140;2023-02-08T20:04:19;8.40;39.20
60848;DHT22;46681;47.696;9.140;2023-02-08T20:06:55;8.30;39.10
60848;DHT22;46681;47.696;9.140;2023-02-08T20:09:22;8.30;39.10
60848;DHT22;46681;47.696;9.140;2023-02-08T20:11:59;8.30;39.10
60848;DHT22;46681;47.696;9.140;2023-02-08T20:14:27;8.30;39.10
60848;DHT22;46681;47.696;9.140;2023-02-08T20:17:21;8.30;39.00
60848;DHT22;46681;47.696;9.140;2023-02-08T20:19:56;8.30;39.30
60848;DHT22;46681;47.696;9.140;2023-02-08T20:22:29;8.30;39.20
60848;DHT22;46681;47.696;9.140;2023-02-08T20:25:22;8.30;39.20
60848;DHT22;46681;47.696;9.140;2023-02-08T20:28:02;8.30;39.10
60848;DHT22;46681;47.696;9.140;2023-02-08T20:30:35;8.30;39.20
60848;DHT22;46681;47.696;9.140;2023-02-08T20:33:31;8.20;39.20
60848;DHT22;46681;47.696;9.140;2023-02-08T20:36:25;8.30;39.10
60848;DHT22;46681;47.696;9.140;2023-02-08T20:39:00;8.20;39.10
60848;DHT22;46681;47.696;9.140;2023-02-08T20:41:27;8.20;39.10
60848;DHT22;46681;47.696;9.140;2023-02-08T20:44:00;8.20;39.20
60848;DHT22;46681;47.696;9.140;2023-02-08T20:46:50;8.20;39.20
60848;DHT22;46681;47.696;9.140;2023-02-08T20:49:22;8.10;39.10
60848;DHT22;46681;47.696;9.140;2023-02-08T20:51:59;8.10;39.10
60848;DHT22;46681;47.696;9.140;2023-02-08T20:54:47;8.10;39.10
60848;DHT22;46681;47.696;9.140;2023-02-08T20:57:14;8.20;39.10
60848;DHT22;46681;47.696;9.140;2023-02-08T20:59:48;8.10;39.10
60848;DHT22;46681;47.696;9.140;2023-02-08T21:02:34;8.10;39.10
60848;DHT22;46681;47.696;9.140;2023-02-08T21:05:11;8.10;39.50
60848;DHT22;46681;47.696;9.140;2023-02-08T21:07:38;8.10;39.00
60848;DHT22;46681;47.696;9.140;2023-02-08T21:10:12;8.00;39.10
60848;DHT22;46681;47.696;9.140;2023-02-08T21:12:48;8.00;39.00
60848;DHT22;46681;47.696;9.140;2023-02-08T21:15:29;8.00;39.00
60848;DHT22;46681;47.696;9.140;2023-02-08T21:17:56;8.00;39.10
60848;DHT22;46681;47.696;9.140;2023-02-08T21:20:35;8.00;39.10
60848;DHT22;46681;47.696;9.140;2023-02-08T21:23:08;8.00;39.10
60848;DHT22;46681;47.696;9.140;2023-02-08T21:25:39;8.00;39.10
60848;DHT22;46681;47.696;9.140;2023-02-08T21:28:05;7.90;39.00
60848;DHT22;46681;47.696;9.140;2023-02-08T21:30:33;7.90;39.00
60848;DHT22;46681;47.696;9.140;2023-02-08T21:33:00;7.90;39.00
60848;DHT22;46681;47.696;9.140;2023-02-08T21:35:41;7.90;39.10
60848;DHT22;46681;47.696;9.140;2023-02-08T21:38:14;7.90;39.10
60848;DHT22;46681;47.696;9.140;2023-02-08T21:40:50;7.90;39.10
60848;DHT22;46681;47.696;9.140;2023-02-08T21:43:16;7.90;39.00
60848;DHT22;46681;47.696;9.140;2023-02-08T21:45:43;7.90;39.10
60848;DHT22;46681;47.696;9.140;2023-02-08T21:48:13;7.90;39.00
60848;DHT22;46681;47.696;9.140;2023-02-08T21:50:40;7.90;39.00